sensor_id;sensor_type;location;lat;lon;timestamp;temperature;humidity
68433;DHT22;55412;51.350;17.056;2023-08-12T00:00:37;18.10;63.10
68433;DHT22;55412;51.350;17.056;2023-08-12T00:03:03;18.10;63.30
68433;DHT22;55412;51.350;17.056;2023-08-12T00:05:30;18.10;63.00
68433;DHT22;55412;51.350;17.056;2023-08-12T00:07:56;18.10;63.00
68433;DHT22;55412;51.350;17.056;2023-08-12T00:10:22;18.10;63.10
68433;DHT22;55412;51.350;17.056;2023-08-12T00:12:48;18.10;63.00
68433;DHT22;55412;51.350;17.056;2023-08-12T00:15:14;18.10;63.30
68433;DHT22;55412;51.350;17.056;2023-08-12T00:17:40;18.10;63.30
68433;DHT22;55412;51.350;17.056;2023-08-12T00:20:07;18.00;63.20
68433;DHT22;55412;51.350;17.056;2023-08-12T00:22:37;18.00;63.30
68433;DHT22;55412;51.350;17.056;2023-08-12T00:25:04;18.10;63.10
68433;DHT22;55412;51.350;17.056;2023-08-12T00:27:32;18.10;63.20
68433;DHT22;55412;51.350;17.056;2023-08-12T00:29:58;18.10;63.20
68433;DHT22;55412;51.350;17.056;2023-08-12T00:32:24;18.10;63.20
68433;DHT22;55412;51.350;17.056;2023-08-12T00:34:50;18.10;63.30
68433;DHT22;55412;51.350;17.056;2023-08-12T00:37:16;18.00;63.30
68433;DHT22;55412;51.350;17.056;2023-08-12T00:39:42;18.00;63.40
68433;DHT22;55412;51.350;17.056;2023-08-12T00:42:09;18.00;63.40
68433;DHT22;55412;51.350;17.056;2023-08-12T00:44:35;18.00;63.50
68433;DHT22;55412;51.350;17.056;2023-08-12T00:47:01;17.90;63.50
68433;DHT22;55412;51.350;17.056;2023-08-12T00:49:28;17.90;63.50
68433;DHT22;55412;51.350;17.056;2023-08-12T00:51:54;17.90;63.40
68433;DHT22;55412;51.350;17.056;2023-08-12T00:54:21;17.90;63.80
68433;DHT22;55412;51.350;17.056;2023-08-12T00:56:49;17.90;64.00
68433;DHT22;55412;51.350;17.056;2023-08-12T00:59:17;17.90;63.60
68433;DHT22;55412;51.350;17.056;2023-08-12T01:01:43;17.80;63.70
68433;DHT22;55412;51.350;17.056;2023-08-12T01:04:10;17.80;63.60
68433;DHT22;55412;51.350;17.056;2023-08-12T01:06:36;17.80;63.90
68433;DHT22;55412;51.350;17.056;2023-08-12T01:09:04;17.80;63.90
68433;DHT22;55412;51.350;17.056;2023-08-12T01:11:39;17.80;64.00
68433;DHT22;55412;51.350;17.056;2023-08-12T01:14:25;17.80;63.90
68433;DHT22;55412;51.350;17.056;2023-08-12T01:16:59;17.80;64.10
68433;DHT22;55412;51.350;17.056;2023-08-12T01:19:37;17.80;64.10
68433;DHT22;55412;51.350;17.056;2023-08-12T01:22:08;17.80;64.00
68433;DHT22;55412;51.350;17.056;2023-08-12T01:24:37;17.80;64.00
68433;DHT22;55412;51.350;17.056;2023-08-12T01:27:08;17.70;64.00
68433;DHT22;55412;51.350;17.056;2023-08-12T01:29:54;17.80;64.20
68433;DHT22;55412;51.350;17.056;2023-08-12T01:35:26;17.70;64.00
68433;DHT22;55412;51.350;17.056;2023-08-12T01:38:13;17.70;64.20
68433;DHT22;55412;51.350;17.056;2023-08-12T01:40:39;17.70;64.20
68433;DHT22;55412;51.350;17.056;2023-08-12T01:43:06;17.70;64.30
68433;DHT22;55412;51.350;17.056;2023-08-12T01:45:34;17.70;64.20
68433;DHT22;55412;51.350;17.056;2023-08-12T01:48:01;17.70;63.90
68433;DHT22;55412;51.350;17.056;2023-08-12T01:50:27;17.70;63.80
68433;DHT22;55412;51.350;17.056;2023-08-12T01:52:53;17.70;64.10
68433;DHT22;55412;51.350;17.056;2023-08-12T01:55:20;17.70;64.30
68433;DHT22;55412;51.350;17.056;2023-08-12T01:57:46;17.70;64.40
68433;DHT22;55412;51.350;17.056;2023-08-12T02:00:12;17.70;64.60
68433;DHT22;55412;51.350;17.056;2023-08-12T02:02:38;17.70;64.50
68433;DHT22;55412;51.350;17.056;2023-08-12T02:05:05;17.70;64.50
68433;DHT22;55412;51.350;17.056;2023-08-12T02:07:31;17.70;64.40
68433;DHT22;55412;51.350;17.056;2023-08-12T02:09:57;17.70;64.50
68433;DHT22;55412;51.350;17.056;2023-08-12T02:12:23;17.60;64.50
68433;DHT22;55412;51.350;17.056;2023-08-12T02:14:49;17.60;64.80
68433;DHT22;55412;51.350;17.056;2023-08-12T02:17:16;17.60;64.80
68433;DHT22;55412;51.350;17.056;2023-08-12T02:19:42;17.60;64.40
68433;DHT22;55412;51.350;17.056;2023-08-12T02:22:09;17.60;64.40
68433;DHT22;55412;51.350;17.056;2023-08-12T02:24:36;17.60;64.30
68433;DHT22;55412;51.350;17.056;2023-08-12T02:27:02;17.60;64.30
68433;DHT22;55412;51.350;17.056;2023-08-12T02:29:28;17.60;64.50
68433;DHT22;55412;51.350;17.056;2023-08-12T02:31:54;17.60;64.40
68433;DHT22;55412;51.350;17.056;2023-08-12T02:34:20;17.60;64.40
68433;DHT22;55412;51.350;17.056;2023-08-12T02:36:47;17.60;64.20
68433;DHT22;55412;51.350;17.056;2023-08-12T02:39:13;17.60;64.10
68433;DHT22;55412;51.350;17.056;2023-08-12T02:41:39;17.50;64.10
68433;DHT22;55412;51.350;17.056;2023-08-12T02:44:05;17.50;64.20
68433;DHT22;55412;51.350;17.056;2023-08-12T02:46:31;17.50;64.00
68433;DHT22;55412;51.350;17.056;2023-08-12T02:48:58;17.50;64.00
68433;DHT22;55412;51.350;17.056;2023-08-12T02:51:24;17.50;64.00
68433;DHT22;55412;51.350;17.056;2023-08-12T02:53:50;17.50;64.20
68433;DHT22;55412;51.350;17.056;2023-08-12T02:56:16;17.50;64.00
68433;DHT22;55412;51.350;17.056;2023-08-12T02:58:42;17.50;64.00
68433;DHT22;55412;51.350;17.056;2023-08-12T03:01:08;17.50;64.20
68433;DHT22;55412;51.350;17.056;2023-08-12T03:03:35;17.50;64.00
68433;DHT22;55412;51.350;17.056;2023-08-12T03:06:01;17.50;64.10
68433;DHT22;55412;51.350;17.056;2023-08-12T03:08:27;17.50;64.10
68433;DHT22;55412;51.350;17.056;2023-08-12T03:11:02;17.60;64.10
68433;DHT22;55412;51.350;17.056;2023-08-12T03:13:29;17.50;64.20
68433;DHT22;55412;51.350;17.056;2023-08-12T03:15:56;17.50;64.30
68433;DHT22;55412;51.350;17.056;2023-08-12T03:18:22;17.60;64.30
68433;DHT22;55412;51.350;17.056;2023-08-12T03:20:49;17.50;64.20
68433;DHT22;55412;51.350;17.056;2023-08-12T03:23:15;17.50;64.50
68433;DHT22;55412;51.350;17.056;2023-08-12T03:25:42;17.50;64.40
68433;DHT22;55412;51.350;17.056;2023-08-12T03:28:08;17.50;64.10
68433;DHT22;55412;51.350;17.056;2023-08-12T03:30:34;17.50;64.10
68433;DHT22;55412;51.350;17.056;2023-08-12T03:33:00;17.50;64.10
68433;DHT22;55412;51.350;17.056;2023-08-12T03:35:26;17.50;64.20
68433;DHT22;55412;51.350;17.056;2023-08-12T03:37:52;17.50;64.30
68433;DHT22;55412;51.350;17.056;2023-08-12T03:40:20;17.50;64.60
68433;DHT22;55412;51.350;17.056;2023-08-12T03:42:46;17.50;64.70
68433;DHT22;55412;51.350;17.056;2023-08-12T03:45:12;17.60;64.70
68433;DHT22;55412;51.350;17.056;2023-08-12T03:47:38;17.60;64.60
68433;DHT22;55412;51.350;17.056;2023-08-12T03:50:05;17.60;64.60
68433;DHT22;55412;51.350;17.056;2023-08-12T03:52:32;17.60;64.60
68433;DHT22;55412;51.350;17.056;2023-08-12T03:54:58;17.60;64.60
68433;DHT22;55412;51.350;17.056;2023-08-12T03:57:24;17.50;64.60
68433;DHT22;55412;51.350;17.056;2023-08-12T03:59:50;17.60;64.50
68433;DHT22;55412;51.350;17.056;2023-08-12T04:02:16;17.60;64.30
68433;DHT22;55412;51.350;17.056;2023-08-12T04:04:42;17.60;64.40
68433;DHT22;55412;51.350;17.056;2023-08-12T04:07:09;17.60;64.40
68433;DHT22;55412;51.350;17.056;2023-08-12T04:09:38;17.60;64.10
68433;DHT22;55412;51.350;17.056;2023-08-12T04:12:04;17.60;64.40
68433;DHT22;55412;51.350;17.056;2023-08-12T04:14:31;17.60;64.30
68433;DHT22;55412;51.350;17.056;2023-08-12T04:16:57;17.60;64.30
68433;DHT22;55412;51.350;17.056;2023-08-12T04:19:23;17.60;64.50
68433;DHT22;55412;51.350;17.056;2023-08-12T04:21:49;17.60;64.50
68433;DHT22;55412;51.350;17.056;2023-08-12T04:24:15;17.60;64.60
68433;DHT22;55412;51.350;17.056;2023-08-12T04:26:41;17.70;64.70
68433;DHT22;55412;51.350;17.056;2023-08-12T04:29:07;17.70;64.60
68433;DHT22;55412;51.350;17.056;2023-08-12T04:31:33;17.70;65.00
68433;DHT22;55412;51.350;17.056;2023-08-12T04:34:00;17.80;64.90
68433;DHT22;55412;51.350;17.056;2023-08-12T04:36:26;17.80;64.80
68433;DHT22;55412;51.350;17.056;2023-08-12T04:38:52;17.80;65.10
68433;DHT22;55412;51.350;17.056;2023-08-12T04:41:18;17.90;65.10
68433;DHT22;55412;51.350;17.056;2023-08-12T04:43:44;18.00;65.20
68433;DHT22;55412;51.350;17.056;2023-08-12T04:46:11;18.00;65.00
68433;DHT22;55412;51.350;17.056;2023-08-12T04:48:37;18.10;64.90
68433;DHT22;55412;51.350;17.056;2023-08-12T04:51:04;18.20;65.30
68433;DHT22;55412;51.350;17.056;2023-08-12T04:53:32;18.30;65.20
68433;DHT22;55412;51.350;17.056;2023-08-12T04:55:58;18.40;65.00
68433;DHT22;55412;51.350;17.056;2023-08-12T04:58:25;18.40;64.50
68433;DHT22;55412;51.350;17.056;2023-08-12T05:00:51;18.50;64.60
68433;DHT22;55412;51.350;17.056;2023-08-12T05:03:17;18.60;64.70
68433;DHT22;55412;51.350;17.056;2023-08-12T05:05:48;18.60;64.80
68433;DHT22;55412;51.350;17.056;2023-08-12T05:08:15;18.80;63.80
68433;DHT22;55412;51.350;17.056;2023-08-12T05:10:41;18.90;64.30
68433;DHT22;55412;51.350;17.056;2023-08-12T05:13:07;19.00;64.00
68433;DHT22;55412;51.350;17.056;2023-08-12T05:15:34;19.20;62.80
68433;DHT22;55412;51.350;17.056;2023-08-12T05:18:02;19.30;62.20
68433;DHT22;55412;51.350;17.056;2023-08-12T05:20:29;19.50;62.00
68433;DHT22;55412;51.350;17.056;2023-08-12T05:22:55;19.60;60.90
68433;DHT22;55412;51.350;17.056;2023-08-12T05:25:21;19.80;60.10
68433;DHT22;55412;51.350;17.056;2023-08-12T05:27:47;20.00;60.00
68433;DHT22;55412;51.350;17.056;2023-08-12T05:30:13;20.20;58.10
68433;DHT22;55412;51.350;17.056;2023-08-12T05:32:39;20.40;57.50
68433;DHT22;55412;51.350;17.056;2023-08-12T05:35:06;20.60;57.70
68433;DHT22;55412;51.350;17.056;2023-08-12T05:37:33;20.70;57.60
68433;DHT22;55412;51.350;17.056;2023-08-12T05:39:59;20.80;58.60
68433;DHT22;55412;51.350;17.056;2023-08-12T05:42:25;21.00;59.10
68433;DHT22;55412;51.350;17.056;2023-08-12T05:44:51;21.10;57.70
68433;DHT22;55412;51.350;17.056;2023-08-12T05:47:17;21.30;57.60
68433;DHT22;55412;51.350;17.056;2023-08-12T05:49:43;21.40;56.70
68433;DHT22;55412;51.350;17.056;2023-08-12T05:52:10;21.60;56.50
68433;DHT22;55412;51.350;17.056;2023-08-12T05:54:42;21.80;55.90
68433;DHT22;55412;51.350;17.056;2023-08-12T05:57:20;22.00;55.70
68433;DHT22;55412;51.350;17.056;2023-08-12T05:59:51;22.20;53.60
68433;DHT22;55412;51.350;17.056;2023-08-12T06:02:18;22.40;55.10
68433;DHT22;55412;51.350;17.056;2023-08-12T06:04:45;22.60;53.90
68433;DHT22;55412;51.350;17.056;2023-08-12T06:07:13;22.80;53.10
68433;DHT22;55412;51.350;17.056;2023-08-12T06:09:40;23.00;52.20
68433;DHT22;55412;51.350;17.056;2023-08-12T06:12:14;23.20;52.00
68433;DHT22;55412;51.350;17.056;2023-08-12T06:14:40;23.40;51.00
68433;DHT22;55412;51.350;17.056;2023-08-12T06:17:06;23.60;50.40
68433;DHT22;55412;51.350;17.056;2023-08-12T06:19:32;23.80;49.70
68433;DHT22;55412;51.350;17.056;2023-08-12T06:22:01;23.90;48.30
68433;DHT22;55412;51.350;17.056;2023-08-12T06:24:28;24.00;48.90
68433;DHT22;55412;51.350;17.056;2023-08-12T06:26:55;24.10;48.40
68433;DHT22;55412;51.350;17.056;2023-08-12T06:29:21;24.30;48.50
68433;DHT22;55412;51.350;17.056;2023-08-12T06:31:47;24.40;47.80
68433;DHT22;55412;51.350;17.056;2023-08-12T06:34:13;24.50;48.10
68433;DHT22;55412;51.350;17.056;2023-08-12T06:36:39;24.60;47.80
68433;DHT22;55412;51.350;17.056;2023-08-12T06:39:05;24.60;47.20
68433;DHT22;55412;51.350;17.056;2023-08-12T06:41:31;24.70;48.10
68433;DHT22;55412;51.350;17.056;2023-08-12T06:43:57;24.80;47.70
68433;DHT22;55412;51.350;17.056;2023-08-12T06:46:24;24.90;47.30
68433;DHT22;55412;51.350;17.056;2023-08-12T06:48:50;25.00;47.00
68433;DHT22;55412;51.350;17.056;2023-08-12T06:51:16;25.20;47.70
68433;DHT22;55412;51.350;17.056;2023-08-12T06:53:43;25.30;46.60
68433;DHT22;55412;51.350;17.056;2023-08-12T06:56:09;25.40;46.30
68433;DHT22;55412;51.350;17.056;2023-08-12T06:58:35;25.50;47.60
68433;DHT22;55412;51.350;17.056;2023-08-12T07:01:01;25.70;47.90
68433;DHT22;55412;51.350;17.056;2023-08-12T07:03:27;25.80;45.70
68433;DHT22;55412;51.350;17.056;2023-08-12T07:05:54;26.00;44.90
68433;DHT22;55412;51.350;17.056;2023-08-12T07:08:20;26.10;45.20
68433;DHT22;55412;51.350;17.056;2023-08-12T07:10:46;26.20;44.90
68433;DHT22;55412;51.350;17.056;2023-08-12T07:13:12;26.20;44.50
68433;DHT22;55412;51.350;17.056;2023-08-12T07:15:39;26.20;45.10
68433;DHT22;55412;51.350;17.056;2023-08-12T07:18:05;26.20;45.50
68433;DHT22;55412;51.350;17.056;2023-08-12T07:20:31;26.20;45.90
68433;DHT22;55412;51.350;17.056;2023-08-12T07:22:58;26.20;45.90
68433;DHT22;55412;51.350;17.056;2023-08-12T07:25:24;26.20;45.80
68433;DHT22;55412;51.350;17.056;2023-08-12T07:27:50;26.30;46.10
68433;DHT22;55412;51.350;17.056;2023-08-12T07:30:17;26.30;46.50
68433;DHT22;55412;51.350;17.056;2023-08-12T07:32:43;26.40;46.20
68433;DHT22;55412;51.350;17.056;2023-08-12T07:35:11;26.50;45.90
68433;DHT22;55412;51.350;17.056;2023-08-12T07:37:37;26.60;46.30
68433;DHT22;55412;51.350;17.056;2023-08-12T07:40:04;26.80;46.00
68433;DHT22;55412;51.350;17.056;2023-08-12T07:42:31;26.90;45.10
68433;DHT22;55412;51.350;17.056;2023-08-12T07:44:57;27.00;45.10
68433;DHT22;55412;51.350;17.056;2023-08-12T07:47:23;27.10;45.50
68433;DHT22;55412;51.350;17.056;2023-08-12T07:49:50;27.20;44.60
68433;DHT22;55412;51.350;17.056;2023-08-12T07:52:16;27.10;44.80
68433;DHT22;55412;51.350;17.056;2023-08-12T07:54:42;27.10;44.50
68433;DHT22;55412;51.350;17.056;2023-08-12T07:57:08;27.10;44.10
68433;DHT22;55412;51.350;17.056;2023-08-12T07:59:37;27.00;45.20
68433;DHT22;55412;51.350;17.056;2023-08-12T08:02:03;26.90;44.20
68433;DHT22;55412;51.350;17.056;2023-08-12T08:04:30;26.80;44.20
68433;DHT22;55412;51.350;17.056;2023-08-12T08:06:56;26.70;44.30
68433;DHT22;55412;51.350;17.056;2023-08-12T08:09:22;26.60;44.40
68433;DHT22;55412;51.350;17.056;2023-08-12T08:11:48;26.50;44.90
68433;DHT22;55412;51.350;17.056;2023-08-12T08:14:14;26.40;44.90
68433;DHT22;55412;51.350;17.056;2023-08-12T08:16:40;26.30;46.30
68433;DHT22;55412;51.350;17.056;2023-08-12T08:19:07;26.20;46.40
68433;DHT22;55412;51.350;17.056;2023-08-12T08:21:35;26.20;47.70
68433;DHT22;55412;51.350;17.056;2023-08-12T08:24:02;26.10;47.40
68433;DHT22;55412;51.350;17.056;2023-08-12T08:26:28;26.00;47.50
68433;DHT22;55412;51.350;17.056;2023-08-12T08:28:54;26.00;47.50
68433;DHT22;55412;51.350;17.056;2023-08-12T08:31:20;25.90;47.00
68433;DHT22;55412;51.350;17.056;2023-08-12T08:33:46;25.90;47.40
68433;DHT22;55412;51.350;17.056;2023-08-12T08:36:12;25.80;47.00
68433;DHT22;55412;51.350;17.056;2023-08-12T08:38:39;25.80;47.50
68433;DHT22;55412;51.350;17.056;2023-08-12T08:41:06;25.80;47.80
68433;DHT22;55412;51.350;17.056;2023-08-12T08:43:37;25.80;47.60
68433;DHT22;55412;51.350;17.056;2023-08-12T08:46:05;25.80;47.60
68433;DHT22;55412;51.350;17.056;2023-08-12T08:48:32;25.80;47.20
68433;DHT22;55412;51.350;17.056;2023-08-12T08:51:00;25.80;47.70
68433;DHT22;55412;51.350;17.056;2023-08-12T08:53:27;25.80;46.90
68433;DHT22;55412;51.350;17.056;2023-08-12T08:55:53;25.80;48.80
68433;DHT22;55412;51.350;17.056;2023-08-12T08:58:21;25.80;47.90
68433;DHT22;55412;51.350;17.056;2023-08-12T09:00:48;25.90;47.30
68433;DHT22;55412;51.350;17.056;2023-08-12T09:03:14;25.90;48.30
68433;DHT22;55412;51.350;17.056;2023-08-12T09:05:42;25.90;47.50
68433;DHT22;55412;51.350;17.056;2023-08-12T09:08:09;25.90;47.20
68433;DHT22;55412;51.350;17.056;2023-08-12T09:10:38;25.90;47.90
68433;DHT22;55412;51.350;17.056;2023-08-12T09:13:06;25.90;47.90
68433;DHT22;55412;51.350;17.056;2023-08-12T09:15:35;26.00;48.90
68433;DHT22;55412;51.350;17.056;2023-08-12T09:18:01;26.00;48.10
68433;DHT22;55412;51.350;17.056;2023-08-12T09:20:27;26.00;49.20
68433;DHT22;55412;51.350;17.056;2023-08-12T09:22:58;26.00;49.10
68433;DHT22;55412;51.350;17.056;2023-08-12T09:25:26;26.10;49.90
68433;DHT22;55412;51.350;17.056;2023-08-12T09:27:55;26.10;49.80
68433;DHT22;55412;51.350;17.056;2023-08-12T09:30:30;26.10;50.30
68433;DHT22;55412;51.350;17.056;2023-08-12T09:33:04;26.20;50.80
68433;DHT22;55412;51.350;17.056;2023-08-12T09:35:38;26.20;50.00
68433;DHT22;55412;51.350;17.056;2023-08-12T09:38:07;26.20;49.20
68433;DHT22;55412;51.350;17.056;2023-08-12T09:40:37;26.30;50.20
68433;DHT22;55412;51.350;17.056;2023-08-12T09:43:04;26.30;48.60
68433;DHT22;55412;51.350;17.056;2023-08-12T09:45:31;26.30;48.20
68433;DHT22;55412;51.350;17.056;2023-08-12T09:48:02;26.40;50.20
68433;DHT22;55412;51.350;17.056;2023-08-12T09:50:28;26.40;47.70
68433;DHT22;55412;51.350;17.056;2023-08-12T09:52:56;26.50;48.60
68433;DHT22;55412;51.350;17.056;2023-08-12T09:55:23;26.50;47.20
68433;DHT22;55412;51.350;17.056;2023-08-12T09:57:54;26.50;48.80
68433;DHT22;55412;51.350;17.056;2023-08-12T10:00:22;26.50;48.80
68433;DHT22;55412;51.350;17.056;2023-08-12T10:02:50;26.60;48.20
68433;DHT22;55412;51.350;17.056;2023-08-12T10:05:37;26.60;47.00
68433;DHT22;55412;51.350;17.056;2023-08-12T10:08:04;26.60;48.20
68433;DHT22;55412;51.350;17.056;2023-08-12T10:10:34;26.60;48.60
68433;DHT22;55412;51.350;17.056;2023-08-12T10:13:01;26.70;47.10
68433;DHT22;55412;51.350;17.056;2023-08-12T10:15:28;26.70;48.30
68433;DHT22;55412;51.350;17.056;2023-08-12T10:17:56;26.70;48.00
68433;DHT22;55412;51.350;17.056;2023-08-12T10:20:24;26.80;48.30
68433;DHT22;55412;51.350;17.056;2023-08-12T10:22:51;26.80;47.20
68433;DHT22;55412;51.350;17.056;2023-08-12T10:25:19;26.90;48.20
68433;DHT22;55412;51.350;17.056;2023-08-12T10:27:49;26.90;47.20
68433;DHT22;55412;51.350;17.056;2023-08-12T10:30:16;26.90;47.80
68433;DHT22;55412;51.350;17.056;2023-08-12T10:32:42;26.90;47.50
68433;DHT22;55412;51.350;17.056;2023-08-12T10:35:09;26.90;47.20
68433;DHT22;55412;51.350;17.056;2023-08-12T10:37:36;27.00;49.00
68433;DHT22;55412;51.350;17.056;2023-08-12T10:40:06;26.90;47.50
68433;DHT22;55412;51.350;17.056;2023-08-12T10:42:49;26.90;47.80
68433;DHT22;55412;51.350;17.056;2023-08-12T10:45:17;26.90;48.90
68433;DHT22;55412;51.350;17.056;2023-08-12T10:50:37;27.00;46.90
68433;DHT22;55412;51.350;17.056;2023-08-12T10:53:25;27.00;45.90
68433;DHT22;55412;51.350;17.056;2023-08-12T10:55:57;27.00;46.40
68433;DHT22;55412;51.350;17.056;2023-08-12T10:58:34;27.00;46.30
68433;DHT22;55412;51.350;17.056;2023-08-12T11:01:17;27.00;46.00
68433;DHT22;55412;51.350;17.056;2023-08-12T11:03:44;27.00;46.10
68433;DHT22;55412;51.350;17.056;2023-08-12T11:06:11;27.00;47.00
68433;DHT22;55412;51.350;17.056;2023-08-12T11:08:46;27.00;46.30
68433;DHT22;55412;51.350;17.056;2023-08-12T11:11:23;27.00;47.50
68433;DHT22;55412;51.350;17.056;2023-08-12T11:13:59;27.00;46.90
68433;DHT22;55412;51.350;17.056;2023-08-12T11:16:35;27.00;48.70
68433;DHT22;55412;51.350;17.056;2023-08-12T11:19:03;27.10;49.40
68433;DHT22;55412;51.350;17.056;2023-08-12T11:21:29;27.10;48.20
68433;DHT22;55412;51.350;17.056;2023-08-12T11:23:56;27.10;47.50
68433;DHT22;55412;51.350;17.056;2023-08-12T11:26:26;27.10;48.00
68433;DHT22;55412;51.350;17.056;2023-08-12T11:28:53;27.10;48.00
68433;DHT22;55412;51.350;17.056;2023-08-12T11:31:19;27.20;48.80
68433;DHT22;55412;51.350;17.056;2023-08-12T11:33:56;27.20;48.80
68433;DHT22;55412;51.350;17.056;2023-08-12T11:36:22;27.20;48.50
68433;DHT22;55412;51.350;17.056;2023-08-12T11:38:49;27.20;48.10
68433;DHT22;55412;51.350;17.056;2023-08-12T11:41:18;27.30;47.10
68433;DHT22;55412;51.350;17.056;2023-08-12T11:43:44;27.30;46.90
68433;DHT22;55412;51.350;17.056;2023-08-12T11:46:10;27.30;48.10
68433;DHT22;55412;51.350;17.056;2023-08-12T11:48:36;27.30;49.20
68433;DHT22;55412;51.350;17.056;2023-08-12T11:51:05;27.30;49.50
68433;DHT22;55412;51.350;17.056;2023-08-12T11:53:32;27.30;48.90
68433;DHT22;55412;51.350;17.056;2023-08-12T11:55:58;27.40;48.80
68433;DHT22;55412;51.350;17.056;2023-08-12T11:58:24;27.40;48.70
68433;DHT22;55412;51.350;17.056;2023-08-12T12:00:50;27.40;48.50
68433;DHT22;55412;51.350;17.056;2023-08-12T12:03:17;27.40;48.20
68433;DHT22;55412;51.350;17.056;2023-08-12T12:05:46;27.40;46.90
68433;DHT22;55412;51.350;17.056;2023-08-12T12:08:14;27.50;48.00
68433;DHT22;55412;51.350;17.056;2023-08-12T12:10:40;27.50;48.20
68433;DHT22;55412;51.350;17.056;2023-08-12T12:13:06;27.50;47.00
68433;DHT22;55412;51.350;17.056;2023-08-12T12:15:43;27.50;47.60
68433;DHT22;55412;51.350;17.056;2023-08-12T12:18:13;27.50;47.80
68433;DHT22;55412;51.350;17.056;2023-08-12T12:20:59;27.60;47.10
68433;DHT22;55412;51.350;17.056;2023-08-12T12:23:29;27.60;48.30
68433;DHT22;55412;51.350;17.056;2023-08-12T12:26:03;27.60;46.90
68433;DHT22;55412;51.350;17.056;2023-08-12T12:28:30;27.60;47.80
68433;DHT22;55412;51.350;17.056;2023-08-12T12:30:57;27.60;47.20
68433;DHT22;55412;51.350;17.056;2023-08-12T12:33:23;27.60;46.90
68433;DHT22;55412;51.350;17.056;2023-08-12T12:35:49;27.70;46.40
68433;DHT22;55412;51.350;17.056;2023-08-12T12:38:15;27.70;46.60
68433;DHT22;55412;51.350;17.056;2023-08-12T12:40:42;27.70;46.00
68433;DHT22;55412;51.350;17.056;2023-08-12T12:43:08;27.70;47.20
68433;DHT22;55412;51.350;17.056;2023-08-12T12:45:34;27.70;46.60
68433;DHT22;55412;51.350;17.056;2023-08-12T12:48:00;27.70;46.40
68433;DHT22;55412;51.350;17.056;2023-08-12T12:50:26;27.70;46.60
68433;DHT22;55412;51.350;17.056;2023-08-12T12:52:52;27.70;46.60
68433;DHT22;55412;51.350;17.056;2023-08-12T12:55:19;27.70;47.70
68433;DHT22;55412;51.350;17.056;2023-08-12T12:57:45;27.70;46.80
68433;DHT22;55412;51.350;17.056;2023-08-12T13:00:12;27.70;47.10
68433;DHT22;55412;51.350;17.056;2023-08-12T13:02:41;27.70;47.60
68433;DHT22;55412;51.350;17.056;2023-08-12T13:05:07;27.70;46.40
68433;DHT22;55412;51.350;17.056;2023-08-12T13:07:34;27.70;46.20
68433;DHT22;55412;51.350;17.056;2023-08-12T13:10:00;27.70;46.20
68433;DHT22;55412;51.350;17.056;2023-08-12T13:12:26;27.80;47.60
68433;DHT22;55412;51.350;17.056;2023-08-12T13:14:52;27.80;46.30
68433;DHT22;55412;51.350;17.056;2023-08-12T13:17:18;27.80;46.40
68433;DHT22;55412;51.350;17.056;2023-08-12T13:19:45;27.80;46.10
68433;DHT22;55412;51.350;17.056;2023-08-12T13:22:11;27.80;46.80
68433;DHT22;55412;51.350;17.056;2023-08-12T13:24:40;27.80;45.60
68433;DHT22;55412;51.350;17.056;2023-08-12T13:27:06;27.80;46.70
68433;DHT22;55412;51.350;17.056;2023-08-12T13:29:33;27.80;47.00
68433;DHT22;55412;51.350;17.056;2023-08-12T13:31:59;27.80;46.60
68433;DHT22;55412;51.350;17.056;2023-08-12T13:34:25;27.80;45.80
68433;DHT22;55412;51.350;17.056;2023-08-12T13:36:52;27.80;46.50
68433;DHT22;55412;51.350;17.056;2023-08-12T13:39:19;27.80;47.10
68433;DHT22;55412;51.350;17.056;2023-08-12T13:41:47;27.80;46.30
68433;DHT22;55412;51.350;17.056;2023-08-12T13:44:13;27.80;48.60
68433;DHT22;55412;51.350;17.056;2023-08-12T13:46:39;27.80;46.70
68433;DHT22;55412;51.350;17.056;2023-08-12T13:49:05;27.80;47.00
68433;DHT22;55412;51.350;17.056;2023-08-12T13:51:31;27.80;45.20
68433;DHT22;55412;51.350;17.056;2023-08-12T13:53:57;27.80;44.90
68433;DHT22;55412;51.350;17.056;2023-08-12T13:56:24;27.80;45.50
68433;DHT22;55412;51.350;17.056;2023-08-12T13:58:50;27.80;45.90
68433;DHT22;55412;51.350;17.056;2023-08-12T14:01:16;27.80;45.60
68433;DHT22;55412;51.350;17.056;2023-08-12T14:03:42;27.80;46.40
68433;DHT22;55412;51.350;17.056;2023-08-12T14:06:08;27.80;46.20
68433;DHT22;55412;51.350;17.056;2023-08-12T14:08:34;27.80;46.20
68433;DHT22;55412;51.350;17.056;2023-08-12T14:11:01;27.80;47.70
68433;DHT22;55412;51.350;17.056;2023-08-12T14:13:27;27.80;46.00
68433;DHT22;55412;51.350;17.056;2023-08-12T14:15:53;27.90;45.80
68433;DHT22;55412;51.350;17.056;2023-08-12T14:18:20;27.90;45.70
68433;DHT22;55412;51.350;17.056;2023-08-12T14:20:46;27.90;46.50
68433;DHT22;55412;51.350;17.056;2023-08-12T14:23:12;27.90;46.40
68433;DHT22;55412;51.350;17.056;2023-08-12T14:25:38;27.90;45.90
68433;DHT22;55412;51.350;17.056;2023-08-12T14:28:05;27.90;46.10
68433;DHT22;55412;51.350;17.056;2023-08-12T14:30:31;27.90;46.50
68433;DHT22;55412;51.350;17.056;2023-08-12T14:32:57;27.90;46.80
68433;DHT22;55412;51.350;17.056;2023-08-12T14:35:24;27.90;47.10
68433;DHT22;55412;51.350;17.056;2023-08-12T14:37:50;27.90;47.30
68433;DHT22;55412;51.350;17.056;2023-08-12T14:40:16;27.80;45.50
68433;DHT22;55412;51.350;17.056;2023-08-12T14:42:43;27.80;47.10
68433;DHT22;55412;51.350;17.056;2023-08-12T14:45:09;27.80;45.20
68433;DHT22;55412;51.350;17.056;2023-08-12T14:47:35;27.80;45.50
68433;DHT22;55412;51.350;17.056;2023-08-12T14:50:02;27.80;45.30
68433;DHT22;55412;51.350;17.056;2023-08-12T14:52:29;27.80;46.40
68433;DHT22;55412;51.350;17.056;2023-08-12T14:54:55;27.90;45.70
68433;DHT22;55412;51.350;17.056;2023-08-12T14:57:21;27.90;46.80
68433;DHT22;55412;51.350;17.056;2023-08-12T14:59:54;27.90;46.40
68433;DHT22;55412;51.350;17.056;2023-08-12T15:02:20;27.90;45.60
68433;DHT22;55412;51.350;17.056;2023-08-12T15:04:48;28.00;46.30
68433;DHT22;55412;51.350;17.056;2023-08-12T15:07:15;28.00;45.50
68433;DHT22;55412;51.350;17.056;2023-08-12T15:09:45;28.00;47.00
68433;DHT22;55412;51.350;17.056;2023-08-12T15:12:11;28.00;47.20
68433;DHT22;55412;51.350;17.056;2023-08-12T15:14:37;28.00;46.40
68433;DHT22;55412;51.350;17.056;2023-08-12T15:17:05;28.10;47.20
68433;DHT22;55412;51.350;17.056;2023-08-12T15:19:32;28.10;47.30
68433;DHT22;55412;51.350;17.056;2023-08-12T15:21:58;28.10;47.80